Time;durP1;ratioP1;P1;durP2;ratioP2;P2;SDS_P1;SDS_P2;PMS_P1;PMS_P2;Temp;Humidity;BMP_temperature;BMP_pressure;BME280_temperature;BME280_humidity;BME280_pressure;Samples;Min_cycle;Max_cycle;Signal;HPM_P1;HPM_P2
2022/12/21 00:00:22;;;;;;;10.18;5.00;;;;;;;10.81;100.00;99475.63;12190613;19;20010;-77
2022/12/21 00:04:25;;;;;;;9.02;5.13;;;;;;;10.71;100.00;99465.34;12169126;19;20006;-77
2022/12/21 00:08:27;;;;;;;10.38;5.05;;;;;;;10.67;100.00;99469.69;12192652;19;20011;-77
2022/12/21 00:12:28;;;;;;;8.15;4.72;;;;;;;10.61;100.00;99466.03;12189283;19;20091;-77
2022/12/21 00:16:33;;;;;;;8.30;4.88;;;;;;;10.68;100.00;99460.34;12169484;19;20007;-77
2022/12/21 00:20:35;;;;;;;9.57;4.53;;;;;;;10.67;100.00;99465.00;12191660;19;20010;-78
2022/12/21 00:24:36;;;;;;;8.38;4.05;;;;;;;10.71;100.00;99459.84;12189128;19;20010;-78
2022/12/21 00:28:39;;;;;;;6.65;4.20;;;;;;;10.75;100.00;99462.91;12173065;19;20000;-78
2022/12/21 00:32:40;;;;;;;10.10;3.95;;;;;;;10.85;100.00;99461.06;12192264;19;20006;-78
2022/12/21 00:36:42;;;;;;;12.68;4.70;;;;;;;10.91;100.00;99453.69;12191970;19;20002;-78
2022/12/21 00:40:45;;;;;;;9.40;4.20;;;;;;;10.97;100.00;99454.56;12170947;19;20077;-78
2022/12/21 00:44:47;;;;;;;7.38;4.20;;;;;;;11.05;100.00;99457.69;12194519;19;20002;-78
2022/12/21 00:48:48;;;;;;;7.57;4.80;;;;;;;11.09;100.00;99455.22;12193094;19;20480;-78
2022/12/21 00:52:50;;;;;;;8.02;4.40;;;;;;;11.13;100.00;99448.09;12172402;19;20007;-79
2022/12/21 00:56:52;;;;;;;8.85;3.85;;;;;;;11.16;100.00;99453.94;12190883;19;20097;-78
2022/12/21 01:00:56;;;;;;;6.68;4.13;;;;;;;11.18;100.00;99446.22;12191845;19;20357;-79
2022/12/21 01:05:00;;;;;;;8.40;3.85;;;;;;;11.17;100.00;99449.22;12171017;19;20387;-79
2022/12/21 01:09:05;;;;;;;8.32;4.93;;;;;;;11.14;100.00;99461.63;12188506;19;20006;-78
2022/12/21 01:13:12;;;;;;;8.50;5.00;;;;;;;11.10;100.00;99462.41;12192208;19;19999;-77
2022/12/21 01:17:14;;;;;;;7.20;4.47;;;;;;;11.03;100.00;99461.78;12165709;19;20468;-79
2022/12/21 01:21:26;;;;;;;7.97;5.10;;;;;;;11.04;100.00;99466.22;12190903;19;20010;-79
2022/12/21 01:25:28;;;;;;;8.77;5.53;;;;;;;10.95;100.00;99472.22;12166434;19;20007;-78
2022/12/21 01:29:29;;;;;;;10.43;5.53;;;;;;;10.88;100.00;99466.06;12191167;19;20062;-79
2022/12/21 01:33:32;;;;;;;9.45;6.13;;;;;;;10.87;100.00;99477.34;12185643;19;20025;-80
2022/12/21 01:37:34;;;;;;;9.27;5.85;;;;;;;10.83;100.00;99479.81;12163816;19;20027;-79
2022/12/21 01:41:36;;;;;;;13.05;6.65;;;;;;;10.74;100.00;99486.88;12186985;19;19998;-78
2022/12/21 01:45:38;;;;;;;13.73;7.18;;;;;;;10.70;100.00;99481.03;12185993;19;20006;-78
2022/12/21 01:49:40;;;;;;;16.83;7.65;;;;;;;10.65;100.00;99488.44;12166135;19;20011;-78
2022/12/21 01:53:57;;;;;;;14.98;7.07;;;;;;;10.58;100.00;99479.50;12184568;19;20084;-78
2022/12/21 01:58:01;;;;;;;13.80;8.02;;;;;;;10.54;100.00;99478.38;12190208;19;20002;-77
2022/12/21 02:02:08;;;;;;;14.10;7.75;;;;;;;10.48;100.00;99467.28;12163938;19;20031;-77
2022/12/21 02:06:20;;;;;;;15.57;8.50;;;;;;;10.45;100.00;99467.81;12188936;19;20014;-77
2022/12/21 02:10:23;;;;;;;14.88;8.38;;;;;;;10.49;100.00;99466.19;12169068;19;20500;-77
2022/12/21 02:14:27;;;;;;;14.65;7.57;;;;;;;10.45;100.00;99467.81;12201710;19;20020;-77
2022/12/21 02:18:44;;;;;;;16.52;8.60;;;;;;;10.51;100.00;99460.44;12196407;19;20010;-77
2022/12/21 02:23:07;;;;;;;13.70;8.65;;;;;;;10.54;100.00;99459.09;12162232;19;20006;-77
2022/12/21 02:27:19;;;;;;;21.38;10.18;;;;;;;10.46;100.00;99458.44;12184524;19;20009;-77
2022/12/21 02:31:20;;;;;;;16.25;9.82;;;;;;;10.45;100.00;99455.97;12159967;19;19999;-77
2022/12/21 02:35:52;;;;;;;20.80;11.27;;;;;;;10.36;100.00;99455.56;12180898;19;20011;-77
2022/12/21 02:40:09;;;;;;;22.95;10.38;;;;;;;10.30;100.00;99461.28;12184562;19;20006;-79
2022/12/21 02:44:33;;;;;;;19.27;11.38;;;;;;;10.26;100.00;99459.03;12160399;19;20033;-77
2022/12/21 02:48:44;;;;;;;18.23;10.55;;;;;;;10.27;100.00;99451.63;12181011;19;20013;-78
2022/12/21 02:52:53;;;;;;;18.75;10.73;;;;;;;10.23;100.00;99453.16;12175576;19;20011;-77
2022/12/21 02:56:56;;;;;;;20.73;11.30;;;;;;;10.20;100.00;99459.19;12199718;19;20046;-77
2022/12/21 03:01:09;;;;;;;21.73;11.88;;;;;;;10.17;100.00;99449.53;12199193;19;20030;-77
2022/12/21 03:05:16;;;;;;;19.33;11.10;;;;;;;10.11;100.00;99444.19;12174201;19;20014;-77
2022/12/21 03:09:51;;;;;;;21.08;12.10;;;;;;;10.14;100.00;99444.53;12200353;19;20006;-78
2022/12/21 03:14:07;;;;;;;18.67;10.95;;;;;;;10.08;100.00;99444.72;12176510;19;20034;-77
2022/12/21 03:18:26;;;;;;;19.98;11.52;;;;;;;10.04;100.00;99433.38;12191909;19;20536;-78
2022/12/21 03:22:50;;;;;;;20.63;11.02;;;;;;;10.12;100.00;99443.97;12168679;19;20358;-78
2022/12/21 03:26:59;;;;;;;20.05;10.48;;;;;;;10.13;100.00;99436.53;12190516;19;20066;-77
2022/12/21 03:31:05;;;;;;;18.33;10.85;;;;;;;10.15;100.00;99426.94;12194649;19;20006;-77
2022/12/21 03:35:17;;;;;;;17.33;10.10;;;;;;;10.19;100.00;99418.97;12175014;19;20006;-77
2022/12/21 03:39:22;;;;;;;17.08;10.43;;;;;;;10.23;100.00;99425.63;12192599;19;20044;-77
2022/12/21 03:43:30;;;;;;;19.10;9.88;;;;;;;10.27;100.00;99421.31;12171007;19;20039;-78
2022/12/21 03:47:41;;;;;;;17.55;10.35;;;;;;;10.26;100.00;99419.59;12190447;19;20006;-78
2022/12/21 03:51:46;;;;;;;17.38;9.98;;;;;;;10.27;100.00;99415.81;12193246;19;20007;-77
2022/12/21 03:55:49;;;;;;;18.88;9.60;;;;;;;10.30;100.00;99411.72;12164445;19;20030;-77
2022/12/21 03:59:55;;;;;;;14.55;9.60;;;;;;;10.29;100.00;99405.34;12198511;19;20006;-78
2022/12/21 04:04:04;;;;;;;19.27;9.27;;;;;;;10.30;100.00;99409.78;12192726;19;20074;-77
2022/12/21 04:08:05;;;;;;;17.60;9.85;;;;;;;10.33;100.00;99414.78;12168409;19;20010;-78
2022/12/21 04:16:28;;;;;;;16.92;9.98;;;;;;;10.24;100.00;99416.28;12168843;19;20015;-77
2022/12/21 04:20:29;;;;;;;17.85;10.07;;;;;;;10.28;100.00;99406.44;12198983;19;20089;-77
2022/12/21 04:28:51;;;;;;;24.75;11.70;;;;;;;10.20;100.00;99416.00;12183002;19;20007;-78
2022/12/21 04:32:53;;;;;;;20.33;11.77;;;;;;;10.14;100.00;99408.75;12195589;19;20026;-78
2022/12/21 04:41:15;;;;;;;22.73;12.60;;;;;;;10.14;100.00;99405.16;12169718;19;20006;-78
2022/12/21 04:45:17;;;;;;;21.80;11.48;;;;;;;10.14;100.00;99416.16;12192748;19;20450;-78
2022/12/21 04:49:18;;;;;;;22.45;11.05;;;;;;;10.13;100.00;99412.56;12182474;19;20077;-78
2022/12/21 04:53:21;;;;;;;18.95;10.48;;;;;;;10.18;100.00;99420.91;12192380;19;20139;-78
2022/12/21 04:57:23;;;;;;;23.55;12.20;;;;;;;10.18;100.00;99418.16;12192569;19;20006;-78
2022/12/21 05:01:24;;;;;;;19.17;11.00;;;;;;;10.19;100.00;99408.78;12172810;19;20015;-78
2022/12/21 05:05:26;;;;;;;17.63;10.27;;;;;;;10.11;100.00;99420.25;12189446;19;20014;-81
2022/12/21 05:09:28;;;;;;;18.38;10.57;;;;;;;10.21;100.00;99411.31;12191676;19;20006;-81
2022/12/21 05:13:28;;;;;;;19.83;9.93;;;;;;;10.24;100.00;99405.28;12170614;19;20032;-80
2022/12/21 05:17:30;;;;;;;17.70;10.13;;;;;;;10.23;100.00;99407.22;12191233;19;20038;-80
2022/12/21 05:21:32;;;;;;;19.05;10.63;;;;;;;10.25;100.00;99417.94;12187336;19;20025;-79
2022/12/21 05:25:33;;;;;;;20.33;10.70;;;;;;;10.24;100.00;99406.09;12165389;19;20007;-79
2022/12/21 05:29:35;;;;;;;20.70;10.98;;;;;;;10.20;100.00;99395.84;12191923;19;20594;-80
2022/12/21 05:33:36;;;;;;;20.40;10.63;;;;;;;10.29;100.00;99404.53;12191904;19;20022;-79
2022/12/21 05:37:38;;;;;;;18.02;10.68;;;;;;;10.30;100.00;99401.53;12168035;19;20033;-80
2022/12/21 05:41:40;;;;;;;15.20;8.88;;;;;;;10.30;100.00;99407.03;12186986;19;20085;-84
2022/12/21 05:45:42;;;;;;;16.08;9.57;;;;;;;10.33;100.00;99398.25;12181113;19;20042;-81
2022/12/21 05:49:44;;;;;;;17.55;9.50;;;;;;;10.30;100.00;99400.69;12162317;19;20006;-81
2022/12/21 05:53:45;;;;;;;21.08;10.25;;;;;;;10.35;100.00;99392.47;12188744;19;20015;-80
2022/12/21 05:57:47;;;;;;;18.80;9.70;;;;;;;10.40;100.00;99390.59;12206843;19;20010;-80
2022/12/21 06:01:49;;;;;;;17.15;10.23;;;;;;;10.34;100.00;99391.66;12198888;19;20034;-79
2022/12/21 06:05:50;;;;;;;16.17;9.40;;;;;;;10.35;100.00;99385.06;12195797;19;20405;-81
2022/12/21 06:09:52;;;;;;;19.45;9.77;;;;;;;10.38;100.00;99380.94;12235507;19;20003;-79
2022/12/21 06:13:53;;;;;;;15.30;9.80;;;;;;;10.41;100.00;99380.41;12212327;19;20027;-79
2022/12/21 06:17:58;;;;;;;14.60;8.65;;;;;;;10.44;100.00;99380.75;12220260;19;20003;-79
2022/12/21 06:22:05;;;;;;;14.43;8.23;;;;;;;10.44;100.00;99386.25;12228186;19;20011;-79
2022/12/21 06:26:09;;;;;;;15.95;8.65;;;;;;;10.49;100.00;99388.22;12229556;19;20006;-78
2022/12/21 06:30:11;;;;;;;14.85;8.20;;;;;;;10.49;100.00;99386.28;12225828;19;20073;-81
2022/12/21 06:34:13;;;;;;;11.77;7.33;;;;;;;10.54;100.00;99390.22;12210878;19;20030;-80
2022/12/21 06:38:15;;;;;;;14.90;7.40;;;;;;;10.58;100.00;99385.84;12188996;19;20010;-81
2022/12/21 06:42:16;;;;;;;19.08;8.35;;;;;;;10.62;100.00;99395.22;12211977;19;20384;-78
2022/12/21 06:46:19;;;;;;;14.60;7.53;;;;;;;10.66;100.00;99399.16;12222919;19;20035;-77
2022/12/21 06:50:22;;;;;;;12.90;7.95;;;;;;;10.59;100.00;99406.78;12228508;19;20002;-77
2022/12/21 06:54:23;;;;;;;13.85;7.50;;;;;;;10.60;100.00;99406.53;12237175;19;20044;-80
2022/12/21 06:58:25;;;;;;;14.25;8.55;;;;;;;10.62;100.00;99407.13;12203445;19;20022;-81
2022/12/21 07:02:27;;;;;;;16.45;8.80;;;;;;;10.64;100.00;99410.41;12211798;19;20015;-81
2022/12/21 07:06:30;;;;;;;16.03;8.83;;;;;;;10.68;100.00;99413.50;12211021;19;20022;-80
2022/12/21 07:10:33;;;;;;;14.30;8.27;;;;;;;10.69;100.00;99412.41;12192936;19;20015;-82
2022/12/21 07:14:43;;;;;;;13.52;7.60;;;;;;;10.69;100.00;99418.75;12205704;19;20076;-80
2022/12/21 07:18:45;;;;;;;12.88;7.70;;;;;;;10.75;100.00;99411.38;12201585;19;21880;-81
2022/12/21 07:22:47;;;;;;;17.58;7.00;;;;;;;10.77;100.00;99427.63;12184885;19;20024;-81
2022/12/21 07:26:48;;;;;;;12.63;7.00;;;;;;;10.80;100.00;99441.75;12205333;19;20007;-82
2022/12/21 07:31:02;;;;;;;11.57;7.18;;;;;;;10.85;100.00;99439.00;12208654;19;20002;-82
2022/12/21 07:35:05;;;;;;;12.75;7.25;;;;;;;10.85;100.00;99443.69;12178946;19;20460;-80
2022/12/21 07:39:06;;;;;;;16.47;7.03;;;;;;;10.86;100.00;99435.19;12202265;19;20099;-82
2022/12/21 07:43:10;;;;;;;11.50;6.72;;;;;;;10.88;100.00;99444.00;12206163;19;20805;-79
2022/12/21 07:47:17;;;;;;;11.18;6.00;;;;;;;10.83;100.00;99435.69;12181363;19;20497;-78
2022/12/21 07:51:19;;;;;;;11.48;6.00;;;;;;;10.80;100.00;99441.75;12204831;19;20464;-79
2022/12/21 07:55:20;;;;;;;11.15;5.88;;;;;;;10.85;100.00;99443.69;12196995;19;20003;-79
2022/12/21 07:59:22;;;;;;;11.73;5.57;;;;;;;10.90;100.00;99446.50;12180158;19;20010;-79
2022/12/21 08:03:23;;;;;;;13.10;5.57;;;;;;;10.88;100.00;99449.50;12203381;19;20015;-79
2022/12/21 08:07:25;;;;;;;9.60;4.97;;;;;;;10.97;100.00;99455.38;12182093;19;20047;-79
2022/12/21 08:11:28;;;;;;;12.65;5.65;;;;;;;11.02;100.00;99458.19;12203261;19;20035;-80
2022/12/21 08:15:30;;;;;;;10.02;5.25;;;;;;;11.06;100.00;99453.00;12205185;19;20278;-80
2022/12/21 08:19:32;;;;;;;8.00;4.65;;;;;;;11.08;100.00;99454.41;12174383;19;20544;-80
2022/12/21 08:23:33;;;;;;;11.70;4.95;;;;;;;11.13;100.00;99456.38;12205021;19;20079;-79
2022/12/21 08:27:35;;;;;;;8.90;5.15;;;;;;;11.13;100.00;99459.13;12198676;19;20023;-82
2022/12/21 08:31:37;;;;;;;8.47;4.73;;;;;;;11.13;100.00;99464.66;12178988;19;20006;-82
2022/12/21 08:35:41;;;;;;;10.55;5.45;;;;;;;11.14;100.00;99458.03;12200462;19;20412;-78
2022/12/21 08:39:43;;;;;;;10.27;5.22;;;;;;;11.24;100.00;99463.63;12199420;19;20035;-79
2022/12/21 08:43:44;;;;;;;9.57;4.97;;;;;;;11.23;100.00;99450.94;12176664;19;20038;-80
2022/12/21 08:47:49;;;;;;;8.20;4.95;;;;;;;11.28;100.00;99451.00;12197014;19;20010;-82
2022/12/21 08:51:51;;;;;;;9.57;5.05;;;;;;;11.35;100.00;99457.09;12199892;19;20031;-80
2022/12/21 08:55:53;;;;;;;7.68;5.00;;;;;;;11.41;100.00;99457.97;12175821;19;20082;-81
2022/12/21 08:59:55;;;;;;;7.47;4.72;;;;;;;11.40;100.00;99465.44;12200591;19;20023;-82
2022/12/21 09:03:57;;;;;;;7.65;4.70;;;;;;;11.48;100.00;99457.75;12200844;19;20035;-81
2022/12/21 09:07:59;;;;;;;7.67;3.87;;;;;;;11.50;100.00;99463.84;12179133;19;20062;-79
2022/12/21 09:12:02;;;;;;;8.98;4.45;;;;;;;11.53;100.00;99461.38;12197509;19;20019;-81
2022/12/21 09:16:12;;;;;;;8.50;4.13;;;;;;;11.59;100.00;99460.31;12196085;19;20010;-81
2022/12/21 09:20:13;;;;;;;7.15;3.70;;;;;;;11.62;100.00;99462.53;12174348;19;20013;-79
2022/12/21 09:24:15;;;;;;;6.18;3.88;;;;;;;11.74;100.00;99458.75;12193307;19;20010;-81
2022/12/21 09:28:17;;;;;;;7.97;4.00;;;;;;;11.83;100.00;99451.66;12194221;19;20028;-80
2022/12/21 09:32:18;;;;;;;7.85;4.05;;;;;;;11.85;100.00;99468.81;12174653;19;20002;-81
2022/12/21 09:36:21;;;;;;;7.85;4.35;;;;;;;11.82;100.00;99474.84;12196467;19;19999;-81
2022/12/21 09:40:22;;;;;;;6.78;3.88;;;;;;;11.77;100.00;99474.78;12208528;19;20014;-78
2022/12/21 09:44:46;;;;;;;8.55;4.72;;;;;;;11.68;100.00;99473.63;12221075;19;20128;-83
2022/12/21 09:48:50;;;;;;;7.60;4.50;;;;;;;11.67;100.00;99477.50;12198631;19;20018;-81
2022/12/21 09:53:01;;;;;;;8.80;4.53;;;;;;;11.70;100.00;99479.72;12176823;19;20013;-80
2022/12/21 09:57:03;;;;;;;9.73;5.00;;;;;;;11.70;100.00;99483.31;12204780;19;20003;-79
2022/12/21 10:01:27;;;;;;;7.95;4.25;;;;;;;11.63;100.00;99479.97;12261464;19;20024;-78
2022/12/21 10:05:38;;;;;;;6.80;4.35;;;;;;;11.69;100.00;99486.31;12221920;19;20021;-82
2022/12/21 10:10:00;;;;;;;9.77;4.45;;;;;;;11.88;100.00;99478.50;12210634;19;20019;-81
2022/12/21 10:14:29;;;;;;;7.47;4.30;;;;;;;12.08;100.00;99478.63;12180341;19;20006;-80
2022/12/21 10:18:58;;;;;;;6.55;4.05;;;;;;;12.20;100.00;99478.41;12204752;19;20620;-81
2022/12/21 10:23:04;;;;;;;7.78;4.35;;;;;;;12.19;100.00;99473.97;12183340;19;19998;-83
2022/12/21 10:27:16;;;;;;;5.68;4.40;;;;;;;12.12;100.00;99471.44;12205539;19;20023;-79
2022/12/21 10:31:33;;;;;;;9.27;5.07;;;;;;;12.09;100.00;99480.28;12209870;19;21921;-80
2022/12/21 10:35:38;;;;;;;7.70;5.50;;;;;;;12.17;100.00;99485.28;12185004;19;20006;-81
2022/12/21 10:39:40;;;;;;;9.77;5.60;;;;;;;12.06;100.00;99464.25;12204179;19;20014;-81
2022/12/21 10:43:42;;;;;;;11.40;5.95;;;;;;;11.98;100.00;99473.03;12184175;19;20000;-81
2022/12/21 10:47:44;;;;;;;10.37;5.10;;;;;;;11.86;100.00;99485.09;12204927;19;20032;-83
2022/12/21 10:51:45;;;;;;;6.10;4.30;;;;;;;11.98;100.00;99478.53;12204002;19;20030;-82
2022/12/21 10:55:47;;;;;;;8.63;5.20;;;;;;;12.07;100.00;99474.19;12184648;19;20015;-82
2022/12/21 10:59:49;;;;;;;7.47;4.75;;;;;;;12.03;100.00;99462.00;12200192;19;20003;-83
2022/12/21 11:04:06;;;;;;;7.95;4.00;;;;;;;12.08;100.00;99464.81;12204784;19;20490;-79
2022/12/21 11:08:15;;;;;;;6.47;4.07;;;;;;;12.14;100.00;99471.19;12181812;19;20007;-81
2022/12/21 11:12:20;;;;;;;6.03;3.55;;;;;;;12.16;100.00;99467.03;12199870;19;20006;-79
2022/12/21 11:16:30;;;;;;;6.80;4.35;;;;;;;12.19;100.00;99451.88;12182214;19;20043;-82
2022/12/21 11:20:31;;;;;;;7.40;4.25;;;;;;;12.20;100.00;99457.13;12197622;19;20010;-81
2022/12/21 11:24:40;;;;;;;8.35;4.28;;;;;;;12.18;100.00;99459.31;12197803;19;20003;-81
2022/12/21 11:28:42;;;;;;;8.05;4.85;;;;;;;12.20;100.00;99465.41;12180066;19;20048;-79
2022/12/21 11:32:46;;;;;;;8.25;4.60;;;;;;;12.13;100.00;99458.47;12209036;19;20017;-78
2022/12/21 11:36:58;;;;;;;10.85;5.25;;;;;;;12.22;100.00;99449.38;12209333;19;21582;-82
2022/12/21 11:41:00;;;;;;;10.50;5.85;;;;;;;12.29;100.00;99452.75;12182567;19;20002;-82
2022/12/21 11:45:21;;;;;;;8.63;4.70;;;;;;;12.40;100.00;99450.03;12198782;19;20002;-83
2022/12/21 11:49:44;;;;;;;9.85;5.22;;;;;;;12.48;100.00;99442.03;12182903;19;20007;-82
2022/12/21 11:53:45;;;;;;;;;;;;;;;12.47;100.00;99437.63;12204687;19;20017;-84
2022/12/21 11:58:10;;;;;;;10.90;4.13;;;;;;;12.44;100.00;99432.63;12223882;19;20291;-81
2022/12/21 12:02:33;;;;;;;8.82;4.38;;;;;;;12.64;100.00;99429.09;12183524;19;20010;-84
2022/12/21 12:07:00;;;;;;;8.82;3.90;;;;;;;12.62;100.00;99422.19;12206751;19;20018;-83
2022/12/21 12:11:23;;;;;;;7.38;3.80;;;;;;;12.74;100.00;99425.53;12188635;19;20010;-79
2022/12/21 12:15:37;;;;;;;6.57;3.67;;;;;;;12.82;100.00;99419.47;12194785;19;20011;-83
2022/12/21 12:19:55;;;;;;;10.93;4.07;;;;;;;12.88;100.00;99414.75;12184667;19;20594;-80
2022/12/21 12:24:08;;;;;;;6.93;3.25;;;;;;;12.98;100.00;99423.06;12195785;19;20009;-81
2022/12/21 12:28:35;;;;;;;5.68;3.30;;;;;;;12.83;100.00;99412.81;12207911;19;20432;-80
2022/12/21 12:33:10;;;;;;;6.55;3.58;;;;;;;12.99;100.00;99421.97;12178993;19;20035;-82
2022/12/21 12:37:34;;;;;;;8.93;4.50;;;;;;;13.07;100.00;99418.66;12199969;19;20714;-80
2022/12/21 12:41:52;;;;;;;8.77;4.03;;;;;;;13.00;100.00;99418.94;12178283;19;21714;-82
2022/12/21 12:46:12;;;;;;;6.82;3.85;;;;;;;12.92;100.00;99411.16;12197681;19;20007;-81
2022/12/21 12:50:37;;;;;;;8.52;3.92;;;;;;;12.81;100.00;99401.19;12178823;19;20007;-83
2022/12/21 12:55:01;;;;;;;7.30;3.83;;;;;;;12.95;100.00;99401.50;12195957;19;20015;-83
2022/12/21 12:59:29;;;;;;;6.28;3.20;;;;;;;13.21;100.00;99405.09;12173933;19;20090;-79
2022/12/21 13:03:56;;;;;;;6.75;3.53;;;;;;;13.12;100.00;99404.84;12197480;19;20038;-80
2022/12/21 13:08:22;;;;;;;6.15;3.38;;;;;;;12.83;100.00;99406.47;12176328;19;20007;-80
2022/12/21 13:12:42;;;;;;;5.35;2.90;;;;;;;12.75;100.00;99408.66;12199365;19;20006;-79
2022/12/21 13:17:22;;;;;;;6.15;3.08;;;;;;;12.98;100.00;99403.72;12176855;19;20118;-79
2022/12/21 13:21:27;;;;;;;5.68;3.03;;;;;;;13.00;100.00;99407.03;12195332;19;20042;-78
2022/12/21 13:25:40;;;;;;;6.95;3.38;;;;;;;12.87;100.00;99402.03;12172224;19;20472;-79
2022/12/21 13:30:02;;;;;;;6.32;2.80;;;;;;;12.78;100.00;99402.56;12199872;19;20087;-79
2022/12/21 13:34:10;;;;;;;7.53;2.90;;;;;;;12.77;100.00;99408.38;12193907;19;20021;-81
2022/12/21 13:38:18;;;;;;;4.85;2.88;;;;;;;12.72;100.00;99405.59;12178184;19;20027;-80
2022/12/21 13:42:28;;;;;;;4.40;2.58;;;;;;;12.64;100.00;99414.44;12195435;19;20073;-81
2022/12/21 13:46:32;;;;;;;6.72;2.63;;;;;;;12.65;100.00;99424.41;12171901;19;20035;-79
2022/12/21 13:50:47;;;;;;;4.90;2.95;;;;;;;12.68;100.00;99432.16;12197716;19;20010;-82
2022/12/21 13:55:12;;;;;;;4.32;2.95;;;;;;;12.68;100.00;99424.69;12193894;19;20014;-78
2022/12/21 13:59:32;;;;;;;8.35;3.90;;;;;;;12.74;100.00;99420.81;12174121;19;20006;-79
2022/12/21 14:03:42;;;;;;;6.28;3.85;;;;;;;12.77;100.00;99416.69;12198023;19;20520;-80
2022/12/21 14:08:11;;;;;;;8.35;3.85;;;;;;;12.81;100.00;99415.03;12169673;19;20490;-80
2022/12/21 14:12:48;;;;;;;5.68;3.53;;;;;;;12.86;100.00;99412.28;12192796;19;20082;-79
2022/12/21 14:16:59;;;;;;;5.15;3.47;;;;;;;12.87;100.00;99413.09;12170316;19;20039;-79
2022/12/21 14:21:11;;;;;;;6.28;3.67;;;;;;;12.80;100.00;99421.66;12193828;19;20006;-81
2022/12/21 14:25:21;;;;;;;5.03;3.28;;;;;;;12.68;100.00;99427.44;12185766;19;20014;-82
2022/12/21 14:29:34;;;;;;;6.57;3.83;;;;;;;12.55;100.00;99427.94;12170171;19;20056;-82
2022/12/21 14:33:46;;;;;;;6.88;3.95;;;;;;;12.46;100.00;99429.59;12188265;19;20022;-81
2022/12/21 14:38:20;;;;;;;7.45;3.55;;;;;;;12.36;100.00;99432.34;12169673;19;20018;-80
2022/12/21 14:42:34;;;;;;;6.30;3.65;;;;;;;12.31;100.00;99428.47;12188029;19;20010;-78
2022/12/21 14:46:37;;;;;;;6.05;3.70;;;;;;;12.23;100.00;99428.97;12177659;19;20010;-79
2022/12/21 14:50:39;;;;;;;7.57;3.30;;;;;;;12.26;100.00;99431.19;12202779;19;20485;-79
2022/12/21 14:54:45;;;;;;;9.73;3.67;;;;;;;12.25;100.00;99436.97;12194068;19;20468;-79
2022/12/21 14:59:05;;;;;;;7.80;3.80;;;;;;;12.18;100.00;99440.00;12181731;19;20010;-80
2022/12/21 15:03:21;;;;;;;7.45;3.92;;;;;;;12.17;100.00;99438.34;12206443;19;20476;-78
2022/12/21 15:07:30;;;;;;;12.38;4.15;;;;;;;12.07;100.00;99432.75;12186502;19;20018;-76
2022/12/21 15:11:32;;;;;;;8.90;4.50;;;;;;;12.01;100.00;99431.06;12212302;19;20059;-78
2022/12/21 15:15:36;;;;;;;9.18;5.03;;;;;;;11.90;100.00;99437.63;12208437;19;20010;-78
2022/12/21 15:19:40;;;;;;;12.40;5.88;;;;;;;11.75;100.00;99441.94;12190664;19;20014;-79
2022/12/21 15:23:43;;;;;;;13.90;6.72;;;;;;;11.66;100.00;99440.78;12206107;19;20056;-77
2022/12/21 15:27:56;;;;;;;11.50;6.53;;;;;;;11.55;100.00;99445.41;12246138;19;20021;-76
2022/12/21 15:32:12;;;;;;;16.70;6.82;;;;;;;11.54;100.00;99445.66;12215107;19;20011;-78
2022/12/21 15:36:18;;;;;;;9.10;5.90;;;;;;;11.55;100.00;99455.63;12210220;19;20020;-79
2022/12/21 15:40:42;;;;;;;10.60;5.97;;;;;;;11.50;100.00;99445.34;12203433;19;20014;-81
2022/12/21 15:45:05;;;;;;;11.63;6.35;;;;;;;11.44;100.00;99442.84;12207808;19;20009;-81
2022/12/21 15:49:07;;;;;;;11.20;5.53;;;;;;;11.34;100.00;99436.16;12209881;19;20410;-79
2022/12/21 15:53:18;;;;;;;11.98;6.65;;;;;;;11.25;100.00;99436.91;12186353;19;20186;-80
2022/12/21 15:57:20;;;;;;;10.23;5.93;;;;;;;11.17;100.00;99435.44;12195006;19;20006;-81
2022/12/21 16:01:25;;;;;;;10.90;6.33;;;;;;;11.11;100.00;99440.09;12200977;19;20022;-79
2022/12/21 16:05:30;;;;;;;9.90;5.80;;;;;;;11.09;100.00;99441.44;12200808;19;20039;-81
2022/12/21 16:09:32;;;;;;;9.93;6.22;;;;;;;11.07;100.00;99436.19;12209742;19;20448;-80
2022/12/21 16:13:39;;;;;;;8.63;5.55;;;;;;;11.02;100.00;99425.13;12214849;19;20095;-76
2022/12/21 16:17:40;;;;;;;9.30;5.53;;;;;;;11.01;100.00;99433.66;12232929;19;20110;-80
2022/12/21 16:21:45;;;;;;;10.27;5.68;;;;;;;10.95;100.00;99421.75;12206420;19;20010;-79
2022/12/21 16:25:48;;;;;;;12.00;5.82;;;;;;;10.95;100.00;99416.25;12170507;19;20538;-76
2022/12/21 16:29:53;;;;;;;11.63;6.03;;;;;;;10.94;100.00;99426.41;12197982;19;20046;-82
2022/12/21 16:34:00;;;;;;;8.20;4.50;;;;;;;10.91;100.00;99417.84;12197430;19;20014;-78
2022/12/21 16:38:02;;;;;;;8.38;5.28;;;;;;;10.85;100.00;99416.13;12183306;19;20054;-83
2022/12/21 16:42:04;;;;;;;8.45;4.55;;;;;;;10.79;100.00;99418.00;12199562;19;20014;-82
2022/12/21 16:46:07;;;;;;;10.15;4.63;;;;;;;10.78;100.00;99412.78;12191759;19;20017;-79
2022/12/21 16:50:28;;;;;;;;;;;;;;;10.75;100.00;99427.91;12179075;19;20076;-82
2022/12/21 16:54:39;;;;;;;8.60;4.65;;;;;;;10.75;100.00;99430.66;12197036;19;19922;-83
2022/12/21 16:58:47;;;;;;;9.60;5.38;;;;;;;10.75;100.00;99427.91;12177973;19;20048;-76
2022/12/21 17:02:54;;;;;;;10.55;5.32;;;;;;;10.75;100.00;99424.31;12200939;19;20019;-79
2022/12/21 17:06:59;;;;;;;8.75;4.70;;;;;;;10.74;100.00;99423.50;12193810;19;20019;-77
2022/12/21 17:11:04;;;;;;;7.80;4.22;;;;;;;10.75;100.00;99419.63;12172396;19;20074;-79
2022/12/21 17:15:25;;;;;;;6.03;3.58;;;;;;;10.76;100.00;99407.50;12185908;19;20038;-81
2022/12/21 17:19:27;;;;;;;7.25;3.97;;;;;;;10.76;100.00;99412.19;12175861;19;20031;-79
2022/12/21 17:23:32;;;;;;;7.15;3.45;;;;;;;10.76;100.00;99413.00;12196302;19;20010;-75
2022/12/21 17:27:59;;;;;;;7.32;3.25;;;;;;;10.78;100.00;99427.38;12191562;19;20802;-77
2022/12/21 17:32:01;;;;;;;5.60;3.00;;;;;;;10.76;100.00;99421.28;12171152;19;20030;-79
2022/12/21 17:36:02;;;;;;;5.10;3.03;;;;;;;10.77;100.00;99422.97;12198749;19;20006;-80
2022/12/21 17:40:21;;;;;;;5.57;3.40;;;;;;;10.80;100.00;99419.69;12204506;19;20027;-82
2022/12/21 17:44:23;;;;;;;5.95;3.08;;;;;;;10.85;100.00;99410.63;12178729;19;20003;-78
2022/12/21 17:48:45;;;;;;;4.60;2.63;;;;;;;10.94;100.00;99401.59;12202356;19;20027;-81
2022/12/21 17:52:47;;;;;;;3.80;2.80;;;;;;;11.05;100.00;99408.06;12173558;19;20030;-81
2022/12/21 17:57:14;;;;;;;4.53;2.58;;;;;;;11.13;100.00;99410.34;12200405;19;20002;-78
2022/12/21 18:01:25;;;;;;;6.95;3.15;;;;;;;11.19;100.00;99405.69;12179761;19;20014;-80
2022/12/21 18:05:27;;;;;;;4.97;2.35;;;;;;;11.24;100.00;99397.44;12201953;19;20006;-82
2022/12/21 18:09:29;;;;;;;5.07;3.00;;;;;;;11.25;100.00;99382.56;12197789;19;20010;-78
2022/12/21 18:13:31;;;;;;;6.18;3.20;;;;;;;11.25;100.00;99393.59;12180961;19;20030;-81
2022/12/21 18:17:33;;;;;;;6.15;3.38;;;;;;;11.13;100.00;99379.16;12200944;19;20480;-82
2022/12/21 18:21:34;;;;;;;5.30;3.60;;;;;;;11.01;100.00;99386.78;12211284;19;20027;-80
2022/12/21 18:25:36;;;;;;;7.50;3.97;;;;;;;10.90;100.00;99378.44;12200051;19;20341;-84
2022/12/21 18:29:38;;;;;;;6.05;3.70;;;;;;;10.85;100.00;99378.38;12231540;19;20003;-78
2022/12/21 18:33:47;;;;;;;7.47;4.35;;;;;;;10.77;100.00;99391.78;12222146;19;20127;-81
2022/12/21 18:37:49;;;;;;;7.70;3.95;;;;;;;10.67;100.00;99392.53;12201023;19;20045;-79
2022/12/21 18:41:51;;;;;;;9.77;4.07;;;;;;;10.59;100.00;99393.00;12214656;19;20055;-83
2022/12/21 18:45:59;;;;;;;6.80;3.92;;;;;;;10.63;100.00;99396.91;12215975;19;20034;-79
2022/12/21 18:50:01;;;;;;;8.65;5.35;;;;;;;10.71;100.00;99399.22;12198014;19;20014;-82
2022/12/21 18:54:13;;;;;;;9.98;4.80;;;;;;;10.79;100.00;99390.44;12217425;19;20014;-83
2022/12/21 18:58:15;;;;;;;10.43;4.95;;;;;;;10.84;100.00;99387.75;12220204;19;20010;-82
2022/12/21 19:02:28;;;;;;;7.72;4.50;;;;;;;10.89;100.00;99382.28;12196382;19;20011;-81